sensor_id;sensor_type;location;lat;lon;timestamp;temperature;humidity
81630;DHT22;71039;49.500;10.418;2024-03-22T00:00:35;9.70;51.30
81630;DHT22;71039;49.500;10.418;2024-03-22T00:03:00;9.70;51.40
81630;DHT22;71039;49.500;10.418;2024-03-22T00:05:26;9.70;51.40
81630;DHT22;71039;49.500;10.418;2024-03-22T00:07:51;9.60;51.50
81630;DHT22;71039;49.500;10.418;2024-03-22T00:10:17;9.50;51.50
81630;DHT22;71039;49.500;10.418;2024-03-22T00:12:42;9.50;51.50
81630;DHT22;71039;49.500;10.418;2024-03-22T00:15:08;9.40;51.50
81630;DHT22;71039;49.500;10.418;2024-03-22T00:17:33;9.40;51.60
81630;DHT22;71039;49.500;10.418;2024-03-22T00:20:00;9.40;51.70
81630;DHT22;71039;49.500;10.418;2024-03-22T00:22:25;9.30;51.80
81630;DHT22;71039;49.500;10.418;2024-03-22T00:24:51;9.20;51.90
81630;DHT22;71039;49.500;10.418;2024-03-22T00:27:16;9.20;52.00
81630;DHT22;71039;49.500;10.418;2024-03-22T00:29:42;9.10;52.00
81630;DHT22;71039;49.500;10.418;2024-03-22T00:32:08;9.00;52.10
81630;DHT22;71039;49.500;10.418;2024-03-22T00:34:34;9.00;52.10
81630;DHT22;71039;49.500;10.418;2024-03-22T00:37:00;9.00;52.20
81630;DHT22;71039;49.500;10.418;2024-03-22T00:39:25;8.90;52.20
81630;DHT22;71039;49.500;10.418;2024-03-22T00:41:51;8.90;52.30
81630;DHT22;71039;49.500;10.418;2024-03-22T00:44:16;8.80;52.50
81630;DHT22;71039;49.500;10.418;2024-03-22T00:46:42;8.80;52.50
81630;DHT22;71039;49.500;10.418;2024-03-22T00:49:07;8.70;52.50
81630;DHT22;71039;49.500;10.418;2024-03-22T00:51:33;8.70;52.50
81630;DHT22;71039;49.500;10.418;2024-03-22T00:53:58;8.60;52.70
81630;DHT22;71039;49.500;10.418;2024-03-22T00:56:24;8.60;52.80
81630;DHT22;71039;49.500;10.418;2024-03-22T00:58:49;8.50;52.90
81630;DHT22;71039;49.500;10.418;2024-03-22T01:01:15;8.50;53.00
81630;DHT22;71039;49.500;10.418;2024-03-22T01:03:40;8.50;53.00
81630;DHT22;71039;49.500;10.418;2024-03-22T01:06:06;8.40;53.10
81630;DHT22;71039;49.500;10.418;2024-03-22T01:08:31;8.40;53.20
81630;DHT22;71039;49.500;10.418;2024-03-22T01:10:57;8.30;53.30
81630;DHT22;71039;49.500;10.418;2024-03-22T01:13:22;8.30;53.50
81630;DHT22;71039;49.500;10.418;2024-03-22T01:15:48;8.30;53.60
81630;DHT22;71039;49.500;10.418;2024-03-22T01:18:13;8.20;53.80
81630;DHT22;71039;49.500;10.418;2024-03-22T01:20:39;8.20;53.90
81630;DHT22;71039;49.500;10.418;2024-03-22T01:23:05;8.20;53.90
81630;DHT22;71039;49.500;10.418;2024-03-22T01:25:30;8.20;54.00
81630;DHT22;71039;49.500;10.418;2024-03-22T01:27:56;8.20;54.00
81630;DHT22;71039;49.500;10.418;2024-03-22T01:30:22;8.20;54.00
81630;DHT22;71039;49.500;10.418;2024-03-22T01:32:47;8.20;53.70
81630;DHT22;71039;49.500;10.418;2024-03-22T01:35:13;8.10;53.70
81630;DHT22;71039;49.500;10.418;2024-03-22T01:37:38;8.10;53.50
81630;DHT22;71039;49.500;10.418;2024-03-22T01:40:04;8.00;53.40
81630;DHT22;71039;49.500;10.418;2024-03-22T01:42:30;8.00;53.40
81630;DHT22;71039;49.500;10.418;2024-03-22T01:44:56;8.00;53.40
81630;DHT22;71039;49.500;10.418;2024-03-22T01:47:21;7.90;53.50
81630;DHT22;71039;49.500;10.418;2024-03-22T01:49:49;7.80;53.50
81630;DHT22;71039;49.500;10.418;2024-03-22T01:52:16;7.80;53.60
81630;DHT22;71039;49.500;10.418;2024-03-22T01:54:41;7.80;53.60
81630;DHT22;71039;49.500;10.418;2024-03-22T01:57:07;7.70;53.70
81630;DHT22;71039;49.500;10.418;2024-03-22T01:59:33;7.70;53.80
81630;DHT22;71039;49.500;10.418;2024-03-22T02:01:59;7.60;53.90
81630;DHT22;71039;49.500;10.418;2024-03-22T02:04:25;7.60;53.90
81630;DHT22;71039;49.500;10.418;2024-03-22T02:06:50;7.50;54.00
81630;DHT22;71039;49.500;10.418;2024-03-22T02:09:16;7.50;54.10
81630;DHT22;71039;49.500;10.418;2024-03-22T02:11:42;7.50;54.10
81630;DHT22;71039;49.500;10.418;2024-03-22T02:14:08;7.50;54.10
81630;DHT22;71039;49.500;10.418;2024-03-22T02:16:33;7.50;54.20
81630;DHT22;71039;49.500;10.418;2024-03-22T02:18:59;7.40;54.30
81630;DHT22;71039;49.500;10.418;2024-03-22T02:21:24;7.40;54.40
81630;DHT22;71039;49.500;10.418;2024-03-22T02:23:50;7.40;54.50
81630;DHT22;71039;49.500;10.418;2024-03-22T02:26:16;7.30;54.50
81630;DHT22;71039;49.500;10.418;2024-03-22T02:28:42;7.30;54.50
81630;DHT22;71039;49.500;10.418;2024-03-22T02:31:08;7.30;54.60
81630;DHT22;71039;49.500;10.418;2024-03-22T02:33:33;7.20;54.60
81630;DHT22;71039;49.500;10.418;2024-03-22T02:35:58;7.20;54.60
81630;DHT22;71039;49.500;10.418;2024-03-22T02:38:24;7.20;54.60
81630;DHT22;71039;49.500;10.418;2024-03-22T02:40:51;7.20;54.60
81630;DHT22;71039;49.500;10.418;2024-03-22T02:43:17;7.20;54.70
81630;DHT22;71039;49.500;10.418;2024-03-22T02:45:42;7.10;54.70
81630;DHT22;71039;49.500;10.418;2024-03-22T02:48:08;7.10;54.70
81630;DHT22;71039;49.500;10.418;2024-03-22T02:50:37;7.00;54.70
81630;DHT22;71039;49.500;10.418;2024-03-22T02:53:04;7.00;54.70
81630;DHT22;71039;49.500;10.418;2024-03-22T02:55:30;7.00;54.70
81630;DHT22;71039;49.500;10.418;2024-03-22T02:57:56;7.00;54.70
81630;DHT22;71039;49.500;10.418;2024-03-22T03:00:22;6.90;54.70
81630;DHT22;71039;49.500;10.418;2024-03-22T03:02:47;6.90;54.70
81630;DHT22;71039;49.500;10.418;2024-03-22T03:05:13;6.90;54.80
81630;DHT22;71039;49.500;10.418;2024-03-22T03:07:39;6.80;54.80
81630;DHT22;71039;49.500;10.418;2024-03-22T03:10:04;6.80;54.80
81630;DHT22;71039;49.500;10.418;2024-03-22T03:12:30;6.80;54.90
81630;DHT22;71039;49.500;10.418;2024-03-22T03:14:56;6.70;55.00
81630;DHT22;71039;49.500;10.418;2024-03-22T03:17:21;6.70;55.00
81630;DHT22;71039;49.500;10.418;2024-03-22T03:19:47;6.60;55.10
81630;DHT22;71039;49.500;10.418;2024-03-22T03:22:13;6.60;55.10
81630;DHT22;71039;49.500;10.418;2024-03-22T03:24:38;6.60;55.10
81630;DHT22;71039;49.500;10.418;2024-03-22T03:27:04;6.50;55.20
81630;DHT22;71039;49.500;10.418;2024-03-22T03:29:29;6.50;55.30
81630;DHT22;71039;49.500;10.418;2024-03-22T03:31:55;6.50;55.30
81630;DHT22;71039;49.500;10.418;2024-03-22T03:34:20;6.40;55.30
81630;DHT22;71039;49.500;10.418;2024-03-22T03:36:46;6.40;55.40
81630;DHT22;71039;49.500;10.418;2024-03-22T03:39:12;6.40;55.40
81630;DHT22;71039;49.500;10.418;2024-03-22T03:41:37;6.30;55.50
81630;DHT22;71039;49.500;10.418;2024-03-22T03:44:03;6.30;55.50
81630;DHT22;71039;49.500;10.418;2024-03-22T03:46:28;6.30;55.60
81630;DHT22;71039;49.500;10.418;2024-03-22T03:48:54;6.20;55.70
81630;DHT22;71039;49.500;10.418;2024-03-22T03:51:20;6.20;55.60
81630;DHT22;71039;49.500;10.418;2024-03-22T03:53:45;6.20;55.70
81630;DHT22;71039;49.500;10.418;2024-03-22T03:56:10;6.20;55.70
81630;DHT22;71039;49.500;10.418;2024-03-22T03:58:36;6.20;55.60
81630;DHT22;71039;49.500;10.418;2024-03-22T04:01:08;6.10;55.70
81630;DHT22;71039;49.500;10.418;2024-03-22T04:03:34;6.10;55.80
81630;DHT22;71039;49.500;10.418;2024-03-22T04:06:00;6.10;55.70
81630;DHT22;71039;49.500;10.418;2024-03-22T04:08:26;6.00;55.80
81630;DHT22;71039;49.500;10.418;2024-03-22T04:10:55;6.00;55.80
81630;DHT22;71039;49.500;10.418;2024-03-22T04:13:21;6.00;55.90
81630;DHT22;71039;49.500;10.418;2024-03-22T04:15:46;6.00;55.90
81630;DHT22;71039;49.500;10.418;2024-03-22T04:18:12;5.90;55.90
81630;DHT22;71039;49.500;10.418;2024-03-22T04:20:37;5.90;56.00
81630;DHT22;71039;49.500;10.418;2024-03-22T04:23:03;5.80;56.10
81630;DHT22;71039;49.500;10.418;2024-03-22T04:25:28;5.80;56.10
81630;DHT22;71039;49.500;10.418;2024-03-22T04:27:54;5.80;56.20
81630;DHT22;71039;49.500;10.418;2024-03-22T04:30:19;5.80;56.20
81630;DHT22;71039;49.500;10.418;2024-03-22T04:32:48;5.80;56.30
81630;DHT22;71039;49.500;10.418;2024-03-22T04:35:13;5.80;56.30
81630;DHT22;71039;49.500;10.418;2024-03-22T04:37:39;5.70;56.30
81630;DHT22;71039;49.500;10.418;2024-03-22T04:40:05;5.70;56.40
81630;DHT22;71039;49.500;10.418;2024-03-22T04:42:31;5.70;56.40
81630;DHT22;71039;49.500;10.418;2024-03-22T04:44:56;5.70;56.40
81630;DHT22;71039;49.500;10.418;2024-03-22T04:47:22;5.70;56.50
81630;DHT22;71039;49.500;10.418;2024-03-22T04:49:47;5.70;56.50
81630;DHT22;71039;49.500;10.418;2024-03-22T04:52:13;5.60;56.50
81630;DHT22;71039;49.500;10.418;2024-03-22T04:54:38;5.60;56.60
81630;DHT22;71039;49.500;10.418;2024-03-22T04:57:04;5.60;56.60
81630;DHT22;71039;49.500;10.418;2024-03-22T04:59:29;5.60;56.70
81630;DHT22;71039;49.500;10.418;2024-03-22T05:01:55;5.60;56.60
81630;DHT22;71039;49.500;10.418;2024-03-22T05:04:20;5.60;56.70
81630;DHT22;71039;49.500;10.418;2024-03-22T05:06:46;5.60;56.70
81630;DHT22;71039;49.500;10.418;2024-03-22T05:09:11;5.60;56.70
81630;DHT22;71039;49.500;10.418;2024-03-22T05:11:37;5.60;56.80
81630;DHT22;71039;49.500;10.418;2024-03-22T05:14:02;5.60;56.80
81630;DHT22;71039;49.500;10.418;2024-03-22T05:16:27;5.50;56.80
81630;DHT22;71039;49.500;10.418;2024-03-22T05:18:53;5.50;56.90
81630;DHT22;71039;49.500;10.418;2024-03-22T05:21:18;5.50;56.90
81630;DHT22;71039;49.500;10.418;2024-03-22T05:23:44;5.50;56.80
81630;DHT22;71039;49.500;10.418;2024-03-22T05:26:09;5.50;56.90
81630;DHT22;71039;49.500;10.418;2024-03-22T05:28:35;5.50;56.90
81630;DHT22;71039;49.500;10.418;2024-03-22T05:31:00;5.50;57.00
81630;DHT22;71039;49.500;10.418;2024-03-22T05:33:26;5.50;57.10
81630;DHT22;71039;49.500;10.418;2024-03-22T05:35:51;5.50;57.20
81630;DHT22;71039;49.500;10.418;2024-03-22T05:38:17;5.50;57.20
81630;DHT22;71039;49.500;10.418;2024-03-22T05:40:42;5.50;57.30
81630;DHT22;71039;49.500;10.418;2024-03-22T05:43:08;5.50;57.30
81630;DHT22;71039;49.500;10.418;2024-03-22T05:45:33;5.50;57.30
81630;DHT22;71039;49.500;10.418;2024-03-22T05:47:59;5.50;57.40
81630;DHT22;71039;49.500;10.418;2024-03-22T05:50:24;5.50;57.50
81630;DHT22;71039;49.500;10.418;2024-03-22T05:52:50;5.50;57.60
81630;DHT22;71039;49.500;10.418;2024-03-22T05:55:15;5.50;57.60
81630;DHT22;71039;49.500;10.418;2024-03-22T05:57:41;5.50;57.70
81630;DHT22;71039;49.500;10.418;2024-03-22T06:00:07;5.50;57.80
81630;DHT22;71039;49.500;10.418;2024-03-22T06:02:33;5.60;57.90
81630;DHT22;71039;49.500;10.418;2024-03-22T06:04:58;5.60;58.00
81630;DHT22;71039;49.500;10.418;2024-03-22T06:07:24;5.60;58.10
81630;DHT22;71039;49.500;10.418;2024-03-22T06:09:49;5.70;58.20
81630;DHT22;71039;49.500;10.418;2024-03-22T06:12:15;5.70;58.30
81630;DHT22;71039;49.500;10.418;2024-03-22T06:14:41;5.80;58.50
81630;DHT22;71039;49.500;10.418;2024-03-22T06:17:07;5.90;58.70
81630;DHT22;71039;49.500;10.418;2024-03-22T06:19:32;5.90;59.00
81630;DHT22;71039;49.500;10.418;2024-03-22T06:21:58;6.00;59.40
81630;DHT22;71039;49.500;10.418;2024-03-22T06:24:23;6.20;59.70
81630;DHT22;71039;49.500;10.418;2024-03-22T06:26:49;6.30;60.00
81630;DHT22;71039;49.500;10.418;2024-03-22T06:29:15;6.40;60.20
81630;DHT22;71039;49.500;10.418;2024-03-22T06:31:41;6.60;60.40
81630;DHT22;71039;49.500;10.418;2024-03-22T06:34:06;6.80;61.10
81630;DHT22;71039;49.500;10.418;2024-03-22T06:36:32;7.00;62.20
81630;DHT22;71039;49.500;10.418;2024-03-22T06:38:57;7.20;62.20
81630;DHT22;71039;49.500;10.418;2024-03-22T06:41:23;7.50;61.80
81630;DHT22;71039;49.500;10.418;2024-03-22T06:43:48;7.70;61.30
81630;DHT22;71039;49.500;10.418;2024-03-22T06:46:14;8.00;60.80
81630;DHT22;71039;49.500;10.418;2024-03-22T06:48:39;8.10;60.40
81630;DHT22;71039;49.500;10.418;2024-03-22T06:51:05;8.30;60.10
81630;DHT22;71039;49.500;10.418;2024-03-22T06:53:30;8.50;59.70
81630;DHT22;71039;49.500;10.418;2024-03-22T06:55:56;8.60;59.40
81630;DHT22;71039;49.500;10.418;2024-03-22T06:58:21;8.80;59.10
81630;DHT22;71039;49.500;10.418;2024-03-22T07:00:47;8.90;58.90
81630;DHT22;71039;49.500;10.418;2024-03-22T07:03:12;9.00;58.80
81630;DHT22;71039;49.500;10.418;2024-03-22T07:05:38;9.10;58.60
81630;DHT22;71039;49.500;10.418;2024-03-22T07:08:03;9.20;58.50
81630;DHT22;71039;49.500;10.418;2024-03-22T07:10:29;9.30;58.40
81630;DHT22;71039;49.500;10.418;2024-03-22T07:12:55;9.40;58.20
81630;DHT22;71039;49.500;10.418;2024-03-22T07:15:22;9.50;58.20
81630;DHT22;71039;49.500;10.418;2024-03-22T07:17:48;9.60;58.00
81630;DHT22;71039;49.500;10.418;2024-03-22T07:20:14;9.70;58.00
81630;DHT22;71039;49.500;10.418;2024-03-22T07:22:39;9.80;58.00
81630;DHT22;71039;49.500;10.418;2024-03-22T07:25:05;9.80;57.90
81630;DHT22;71039;49.500;10.418;2024-03-22T07:27:30;10.00;57.90
81630;DHT22;71039;49.500;10.418;2024-03-22T07:29:56;10.00;57.90
81630;DHT22;71039;49.500;10.418;2024-03-22T07:32:21;10.10;57.90
81630;DHT22;71039;49.500;10.418;2024-03-22T07:34:47;10.20;58.00
81630;DHT22;71039;49.500;10.418;2024-03-22T07:37:12;10.30;58.00
81630;DHT22;71039;49.500;10.418;2024-03-22T07:39:38;10.40;58.00
81630;DHT22;71039;49.500;10.418;2024-03-22T07:42:03;10.50;58.20
81630;DHT22;71039;49.500;10.418;2024-03-22T07:44:29;10.60;58.10
81630;DHT22;71039;49.500;10.418;2024-03-22T07:46:54;10.80;58.00
81630;DHT22;71039;49.500;10.418;2024-03-22T07:49:20;10.90;57.90
81630;DHT22;71039;49.500;10.418;2024-03-22T07:51:46;11.10;58.00
81630;DHT22;71039;49.500;10.418;2024-03-22T07:54:11;11.20;58.10
81630;DHT22;71039;49.500;10.418;2024-03-22T07:56:37;11.40;58.30
81630;DHT22;71039;49.500;10.418;2024-03-22T07:59:02;11.50;58.70
81630;DHT22;71039;49.500;10.418;2024-03-22T08:01:28;11.70;59.20
81630;DHT22;71039;49.500;10.418;2024-03-22T08:03:53;11.90;59.80
81630;DHT22;71039;49.500;10.418;2024-03-22T08:06:19;12.20;60.00
81630;DHT22;71039;49.500;10.418;2024-03-22T08:08:45;12.50;59.90
81630;DHT22;71039;49.500;10.418;2024-03-22T08:11:10;12.90;60.40
81630;DHT22;71039;49.500;10.418;2024-03-22T08:13:36;13.30;62.00
81630;DHT22;71039;49.500;10.418;2024-03-22T08:16:02;13.70;64.30
81630;DHT22;71039;49.500;10.418;2024-03-22T08:18:27;14.30;65.70
81630;DHT22;71039;49.500;10.418;2024-03-22T08:20:53;14.90;65.60
81630;DHT22;71039;49.500;10.418;2024-03-22T08:23:18;15.60;63.60
81630;DHT22;71039;49.500;10.418;2024-03-22T08:25:44;16.20;61.60
81630;DHT22;71039;49.500;10.418;2024-03-22T08:28:09;16.80;59.60
81630;DHT22;71039;49.500;10.418;2024-03-22T08:30:37;17.30;57.70
81630;DHT22;71039;49.500;10.418;2024-03-22T08:33:03;17.70;55.80
81630;DHT22;71039;49.500;10.418;2024-03-22T08:35:28;18.00;54.50
81630;DHT22;71039;49.500;10.418;2024-03-22T08:37:54;18.20;53.40
81630;DHT22;71039;49.500;10.418;2024-03-22T08:40:19;18.40;52.60
81630;DHT22;71039;49.500;10.418;2024-03-22T08:42:45;18.50;52.30
81630;DHT22;71039;49.500;10.418;2024-03-22T08:45:10;18.60;52.50
81630;DHT22;71039;49.500;10.418;2024-03-22T08:47:36;18.70;52.20
81630;DHT22;71039;49.500;10.418;2024-03-22T08:50:01;18.80;52.50
81630;DHT22;71039;49.500;10.418;2024-03-22T08:52:27;19.00;53.40
81630;DHT22;71039;49.500;10.418;2024-03-22T08:54:53;19.30;53.90
81630;DHT22;71039;49.500;10.418;2024-03-22T08:57:18;19.50;54.10
81630;DHT22;71039;49.500;10.418;2024-03-22T08:59:44;19.90;53.60
81630;DHT22;71039;49.500;10.418;2024-03-22T09:02:09;20.30;53.50
81630;DHT22;71039;49.500;10.418;2024-03-22T09:04:35;20.60;53.60
81630;DHT22;71039;49.500;10.418;2024-03-22T09:07:00;21.00;53.40
81630;DHT22;71039;49.500;10.418;2024-03-22T09:09:26;21.40;52.80
81630;DHT22;71039;49.500;10.418;2024-03-22T09:11:52;21.70;52.40
81630;DHT22;71039;49.500;10.418;2024-03-22T09:14:18;22.10;51.80
81630;DHT22;71039;49.500;10.418;2024-03-22T09:16:43;22.50;51.30
81630;DHT22;71039;49.500;10.418;2024-03-22T09:19:09;22.90;50.70
81630;DHT22;71039;49.500;10.418;2024-03-22T09:21:34;23.20;50.20
81630;DHT22;71039;49.500;10.418;2024-03-22T09:24:00;23.60;49.70
81630;DHT22;71039;49.500;10.418;2024-03-22T09:26:25;23.90;49.10
81630;DHT22;71039;49.500;10.418;2024-03-22T09:28:51;24.20;48.60
81630;DHT22;71039;49.500;10.418;2024-03-22T09:31:16;24.40;48.10
81630;DHT22;71039;49.500;10.418;2024-03-22T09:33:42;24.70;47.00
81630;DHT22;71039;49.500;10.418;2024-03-22T09:36:08;25.00;45.80
81630;DHT22;71039;49.500;10.418;2024-03-22T09:38:34;25.10;44.90
81630;DHT22;71039;49.500;10.418;2024-03-22T09:40:59;25.20;43.90
81630;DHT22;71039;49.500;10.418;2024-03-22T09:43:27;25.30;43.10
81630;DHT22;71039;49.500;10.418;2024-03-22T09:45:53;25.30;42.30
81630;DHT22;71039;49.500;10.418;2024-03-22T09:48:19;25.30;41.90
81630;DHT22;71039;49.500;10.418;2024-03-22T09:50:48;25.20;41.40
81630;DHT22;71039;49.500;10.418;2024-03-22T09:53:18;25.20;40.70
81630;DHT22;71039;49.500;10.418;2024-03-22T09:55:46;25.00;40.40
81630;DHT22;71039;49.500;10.418;2024-03-22T09:58:12;25.00;40.50
81630;DHT22;71039;49.500;10.418;2024-03-22T10:00:40;24.90;40.20
81630;DHT22;71039;49.500;10.418;2024-03-22T10:03:06;24.70;39.80
81630;DHT22;71039;49.500;10.418;2024-03-22T10:05:32;24.60;39.60
81630;DHT22;71039;49.500;10.418;2024-03-22T10:08:00;24.50;39.70
81630;DHT22;71039;49.500;10.418;2024-03-22T10:10:25;24.40;39.40
81630;DHT22;71039;49.500;10.418;2024-03-22T10:12:51;24.20;39.20
81630;DHT22;71039;49.500;10.418;2024-03-22T10:15:17;24.10;39.00
81630;DHT22;71039;49.500;10.418;2024-03-22T10:17:43;24.00;39.10
81630;DHT22;71039;49.500;10.418;2024-03-22T10:20:12;23.90;39.00
81630;DHT22;71039;49.500;10.418;2024-03-22T10:22:48;23.70;39.00
81630;DHT22;71039;49.500;10.418;2024-03-22T10:25:13;23.60;39.20
81630;DHT22;71039;49.500;10.418;2024-03-22T10:27:40;23.50;39.30
81630;DHT22;71039;49.500;10.418;2024-03-22T10:30:08;23.40;39.40
81630;DHT22;71039;49.500;10.418;2024-03-22T10:32:36;23.30;39.20
81630;DHT22;71039;49.500;10.418;2024-03-22T10:35:04;23.20;39.30
81630;DHT22;71039;49.500;10.418;2024-03-22T10:37:35;23.20;39.30
81630;DHT22;71039;49.500;10.418;2024-03-22T10:40:04;23.10;39.50
81630;DHT22;71039;49.500;10.418;2024-03-22T10:42:29;23.10;39.50
81630;DHT22;71039;49.500;10.418;2024-03-22T10:44:55;23.10;39.70
81630;DHT22;71039;49.500;10.418;2024-03-22T10:47:22;23.10;39.60
81630;DHT22;71039;49.500;10.418;2024-03-22T10:49:50;23.10;39.50
81630;DHT22;71039;49.500;10.418;2024-03-22T10:52:17;23.10;39.30
81630;DHT22;71039;49.500;10.418;2024-03-22T10:54:45;23.10;39.40
81630;DHT22;71039;49.500;10.418;2024-03-22T10:57:13;23.10;39.30
81630;DHT22;71039;49.500;10.418;2024-03-22T10:59:41;23.00;39.30
81630;DHT22;71039;49.500;10.418;2024-03-22T11:02:10;23.00;39.20
81630;DHT22;71039;49.500;10.418;2024-03-22T11:04:36;23.00;39.10
81630;DHT22;71039;49.500;10.418;2024-03-22T11:07:02;23.00;39.40
81630;DHT22;71039;49.500;10.418;2024-03-22T11:09:27;23.00;39.30
81630;DHT22;71039;49.500;10.418;2024-03-22T11:11:54;23.00;39.10
81630;DHT22;71039;49.500;10.418;2024-03-22T11:14:20;22.90;39.10
81630;DHT22;71039;49.500;10.418;2024-03-22T11:16:47;22.90;39.00
81630;DHT22;71039;49.500;10.418;2024-03-22T11:19:12;22.90;39.00
81630;DHT22;71039;49.500;10.418;2024-03-22T11:21:38;22.90;39.00
81630;DHT22;71039;49.500;10.418;2024-03-22T11:24:05;22.80;39.00
81630;DHT22;71039;49.500;10.418;2024-03-22T11:26:30;22.80;39.00
81630;DHT22;71039;49.500;10.418;2024-03-22T11:28:56;22.80;38.90
81630;DHT22;71039;49.500;10.418;2024-03-22T11:31:22;22.80;38.90
81630;DHT22;71039;49.500;10.418;2024-03-22T11:33:49;22.80;38.70
81630;DHT22;71039;49.500;10.418;2024-03-22T11:36:14;22.70;38.60
81630;DHT22;71039;49.500;10.418;2024-03-22T11:38:40;22.70;38.70
81630;DHT22;71039;49.500;10.418;2024-03-22T11:41:06;22.70;38.70
81630;DHT22;71039;49.500;10.418;2024-03-22T11:43:32;22.70;38.60
81630;DHT22;71039;49.500;10.418;2024-03-22T11:45:58;22.60;38.60
81630;DHT22;71039;49.500;10.418;2024-03-22T11:48:24;22.60;38.50
81630;DHT22;71039;49.500;10.418;2024-03-22T11:50:50;22.60;38.40
81630;DHT22;71039;49.500;10.418;2024-03-22T11:53:18;22.60;38.50
81630;DHT22;71039;49.500;10.418;2024-03-22T11:55:44;22.50;38.50
81630;DHT22;71039;49.500;10.418;2024-03-22T11:58:12;22.50;38.70
81630;DHT22;71039;49.500;10.418;2024-03-22T12:00:38;22.50;38.60
81630;DHT22;71039;49.500;10.418;2024-03-22T12:03:06;22.50;38.70
81630;DHT22;71039;49.500;10.418;2024-03-22T12:05:32;22.50;38.80
81630;DHT22;71039;49.500;10.418;2024-03-22T12:07:57;22.50;38.90
81630;DHT22;71039;49.500;10.418;2024-03-22T12:10:23;22.40;38.90
81630;DHT22;71039;49.500;10.418;2024-03-22T12:12:49;22.50;38.80
81630;DHT22;71039;49.500;10.418;2024-03-22T12:15:14;22.40;38.90
81630;DHT22;71039;49.500;10.418;2024-03-22T12:17:40;22.40;38.90
81630;DHT22;71039;49.500;10.418;2024-03-22T12:20:08;22.40;38.90
81630;DHT22;71039;49.500;10.418;2024-03-22T12:22:34;22.40;38.90
81630;DHT22;71039;49.500;10.418;2024-03-22T12:25:00;22.40;39.00
81630;DHT22;71039;49.500;10.418;2024-03-22T12:27:25;22.40;39.10
81630;DHT22;71039;49.500;10.418;2024-03-22T12:29:51;22.40;39.10
81630;DHT22;71039;49.500;10.418;2024-03-22T12:32:16;22.50;39.20
81630;DHT22;71039;49.500;10.418;2024-03-22T12:34:42;22.50;39.20
81630;DHT22;71039;49.500;10.418;2024-03-22T12:37:07;22.50;39.20
81630;DHT22;71039;49.500;10.418;2024-03-22T12:39:33;22.60;39.10
81630;DHT22;71039;49.500;10.418;2024-03-22T12:41:58;22.60;39.00
81630;DHT22;71039;49.500;10.418;2024-03-22T12:44:24;22.70;38.90
81630;DHT22;71039;49.500;10.418;2024-03-22T12:46:49;22.70;38.80
81630;DHT22;71039;49.500;10.418;2024-03-22T12:49:15;22.70;38.60
81630;DHT22;71039;49.500;10.418;2024-03-22T12:51:40;22.80;38.50
81630;DHT22;71039;49.500;10.418;2024-03-22T12:54:08;22.80;38.40
81630;DHT22;71039;49.500;10.418;2024-03-22T12:56:34;22.80;38.20
81630;DHT22;71039;49.500;10.418;2024-03-22T12:59:00;22.80;38.10
81630;DHT22;71039;49.500;10.418;2024-03-22T13:01:26;22.80;38.10
81630;DHT22;71039;49.500;10.418;2024-03-22T13:03:51;22.80;38.10
81630;DHT22;71039;49.500;10.418;2024-03-22T13:06:17;22.90;38.00
81630;DHT22;71039;49.500;10.418;2024-03-22T13:08:43;22.90;38.00
81630;DHT22;71039;49.500;10.418;2024-03-22T13:11:08;22.90;37.90
81630;DHT22;71039;49.500;10.418;2024-03-22T13:13:34;22.90;37.80
81630;DHT22;71039;49.500;10.418;2024-03-22T13:15:59;22.90;37.80
81630;DHT22;71039;49.500;10.418;2024-03-22T13:18:25;22.90;37.70
81630;DHT22;71039;49.500;10.418;2024-03-22T13:20:50;22.90;37.60
81630;DHT22;71039;49.500;10.418;2024-03-22T13:23:16;22.90;37.60
81630;DHT22;71039;49.500;10.418;2024-03-22T13:25:41;22.90;37.60
81630;DHT22;71039;49.500;10.418;2024-03-22T13:28:07;22.90;37.50
81630;DHT22;71039;49.500;10.418;2024-03-22T13:30:32;22.90;37.50
81630;DHT22;71039;49.500;10.418;2024-03-22T13:32:58;22.90;37.40
81630;DHT22;71039;49.500;10.418;2024-03-22T13:35:23;23.00;37.30
81630;DHT22;71039;49.500;10.418;2024-03-22T13:37:49;22.90;37.30
81630;DHT22;71039;49.500;10.418;2024-03-22T13:40:14;23.00;37.30
81630;DHT22;71039;49.500;10.418;2024-03-22T13:42:40;23.00;37.10
81630;DHT22;71039;49.500;10.418;2024-03-22T13:45:06;23.00;37.10
81630;DHT22;71039;49.500;10.418;2024-03-22T13:47:31;23.00;37.00
81630;DHT22;71039;49.500;10.418;2024-03-22T13:49:57;23.00;37.00
81630;DHT22;71039;49.500;10.418;2024-03-22T13:52:22;23.00;36.90
81630;DHT22;71039;49.500;10.418;2024-03-22T13:54:48;23.00;36.90
81630;DHT22;71039;49.500;10.418;2024-03-22T13:57:13;22.90;36.90
81630;DHT22;71039;49.500;10.418;2024-03-22T13:59:39;22.90;36.70
81630;DHT22;71039;49.500;10.418;2024-03-22T14:02:05;22.90;36.40
81630;DHT22;71039;49.500;10.418;2024-03-22T14:04:30;22.80;36.20
81630;DHT22;71039;49.500;10.418;2024-03-22T14:06:56;22.80;36.20
81630;DHT22;71039;49.500;10.418;2024-03-22T14:09:21;22.70;36.10
81630;DHT22;71039;49.500;10.418;2024-03-22T14:11:47;22.60;36.00
81630;DHT22;71039;49.500;10.418;2024-03-22T14:14:12;22.60;35.90
81630;DHT22;71039;49.500;10.418;2024-03-22T14:16:39;22.50;35.80
81630;DHT22;71039;49.500;10.418;2024-03-22T14:19:05;22.50;35.70
81630;DHT22;71039;49.500;10.418;2024-03-22T14:21:30;22.30;35.80
81630;DHT22;71039;49.500;10.418;2024-03-22T14:23:56;22.20;35.70
81630;DHT22;71039;49.500;10.418;2024-03-22T14:26:21;22.20;35.80
81630;DHT22;71039;49.500;10.418;2024-03-22T14:28:47;22.10;35.80
81630;DHT22;71039;49.500;10.418;2024-03-22T14:31:12;22.00;35.80
81630;DHT22;71039;49.500;10.418;2024-03-22T14:33:39;21.90;35.90
81630;DHT22;71039;49.500;10.418;2024-03-22T14:36:06;21.90;36.10
81630;DHT22;71039;49.500;10.418;2024-03-22T14:38:32;21.80;36.10
81630;DHT22;71039;49.500;10.418;2024-03-22T14:40:58;21.70;36.20
81630;DHT22;71039;49.500;10.418;2024-03-22T14:43:24;21.70;36.20
81630;DHT22;71039;49.500;10.418;2024-03-22T14:45:54;21.70;36.20
81630;DHT22;71039;49.500;10.418;2024-03-22T14:48:23;21.70;36.30
81630;DHT22;71039;49.500;10.418;2024-03-22T14:50:49;21.60;36.30
81630;DHT22;71039;49.500;10.418;2024-03-22T14:53:15;21.50;36.30
81630;DHT22;71039;49.500;10.418;2024-03-22T14:55:41;21.50;36.20
81630;DHT22;71039;49.500;10.418;2024-03-22T14:58:06;21.50;36.20
81630;DHT22;71039;49.500;10.418;2024-03-22T15:00:32;21.50;36.20
81630;DHT22;71039;49.500;10.418;2024-03-22T15:02:58;21.40;36.20
81630;DHT22;71039;49.500;10.418;2024-03-22T15:05:24;21.40;36.20
81630;DHT22;71039;49.500;10.418;2024-03-22T15:07:49;21.30;36.30
81630;DHT22;71039;49.500;10.418;2024-03-22T15:10:15;21.30;36.30
81630;DHT22;71039;49.500;10.418;2024-03-22T15:12:40;21.20;36.40